Time;durP1;ratioP1;P1;durP2;ratioP2;P2;SDS_P1;SDS_P2;PMS_P1;PMS_P2;Temp;Humidity;BMP_temperature;BMP_pressure;BME280_temperature;BME280_humidity;BME280_pressure;Samples;Min_cycle;Max_cycle;Signal;HPM_P1;HPM_P2
2023/08/01 00:01:00;;;;;;;;;;;17.00;99.90;;;;;;5037750;28;20281;-44
2023/08/01 00:03:27;;;;;;;;;;;16.90;99.90;;;;;;5032326;28;20301;-43
2023/08/01 00:05:54;;;;;;;;;;;16.90;99.90;;;;;;5031599;28;19924;-44
2023/08/01 00:08:21;;;;;;;;;;;16.90;99.90;;;;;;5032395;28;19935;-43
2023/08/01 00:10:48;;;;;;;;;;;16.90;99.90;;;;;;5013724;28;19958;-44
2023/08/01 00:13:15;;;;;;;;;;;16.90;99.90;;;;;;5038365;28;20003;-43
2023/08/01 00:15:42;;;;;;;;;;;16.90;99.90;;;;;;5014426;28;19932;-43
2023/08/01 00:18:09;;;;;;;;;;;16.90;99.90;;;;;;5040147;28;19929;-44
2023/08/01 00:20:36;;;;;;;;;;;16.90;99.90;;;;;;5036043;28;19971;-43
2023/08/01 00:23:03;;;;;;;;;;;16.90;99.90;;;;;;5015815;28;20346;-44
2023/08/01 00:25:29;;;;;;;;;;;16.90;99.90;;;;;;5015770;28;20071;-43
2023/08/01 00:27:56;;;;;;;;;;;16.80;99.90;;;;;;5024171;28;19941;-44
2023/08/01 00:30:22;;;;;;;;;;;16.80;99.90;;;;;;5013850;28;19935;-43
2023/08/01 00:32:50;;;;;;;;;;;16.80;99.90;;;;;;5016995;28;19984;-43
2023/08/01 00:35:17;;;;;;;;;;;16.80;99.90;;;;;;5030177;28;19998;-44
2023/08/01 00:37:44;;;;;;;;;;;16.80;99.90;;;;;;5013200;28;19929;-44
2023/08/01 00:40:11;;;;;;;;;;;16.80;99.90;;;;;;5030465;28;19951;-43
2023/08/01 00:42:38;;;;;;;;;;;16.70;99.90;;;;;;5024934;28;19948;-44
2023/08/01 00:45:05;;;;;;;;;;;16.70;99.90;;;;;;5037937;28;20000;-43
2023/08/01 00:47:35;;;;;;;;;;;16.70;99.90;;;;;;5025327;28;19979;-44
2023/08/01 00:50:03;;;;;;;;;;;16.70;99.90;;;;;;5031026;28;19993;-44
2023/08/01 00:52:30;;;;;;;;;;;16.70;99.90;;;;;;5045712;28;19924;-43
2023/08/01 00:54:57;;;;;;;;;;;16.70;99.90;;;;;;5014852;28;20008;-43
2023/08/01 00:57:23;;;;;;;;;;;16.70;99.90;;;;;;5035558;28;19974;-44
2023/08/01 00:59:50;;;;;;;;;;;16.70;99.90;;;;;;5022848;28;19932;-43
2023/08/01 01:02:17;;;;;;;;;;;16.70;99.90;;;;;;5024480;28;19921;-44
2023/08/01 01:04:43;;;;;;;;;;;16.70;99.90;;;;;;5031043;28;19951;-44
2023/08/01 01:07:11;;;;;;;;;;;16.60;99.90;;;;;;5017821;28;19960;-44
2023/08/01 01:09:38;;;;;;;;;;;16.60;99.90;;;;;;5017591;28;19937;-43
2023/08/01 01:12:06;;;;;;;;;;;16.60;99.90;;;;;;5034175;28;20295;-43
2023/08/01 01:14:33;;;;;;;;;;;16.60;99.90;;;;;;5016601;28;19928;-44
2023/08/01 01:17:00;;;;;;;;;;;16.60;99.90;;;;;;5035660;28;19921;-44
2023/08/01 01:19:27;;;;;;;;;;;16.60;99.90;;;;;;5016844;28;20375;-44
2023/08/01 01:21:55;;;;;;;;;;;16.60;99.90;;;;;;5050575;28;19916;-43
2023/08/01 01:24:21;;;;;;;;;;;16.60;99.90;;;;;;5037357;28;19937;-44
2023/08/01 01:26:48;;;;;;;;;;;16.60;99.90;;;;;;5025179;28;19928;-43
2023/08/01 01:29:15;;;;;;;;;;;16.60;99.90;;;;;;5033405;28;19981;-44
2023/08/01 01:31:41;;;;;;;;;;;16.60;99.90;;;;;;5034591;28;19938;-43
2023/08/01 01:34:08;;;;;;;;;;;16.50;99.90;;;;;;5035324;28;19940;-43
2023/08/01 01:36:35;;;;;;;;;;;16.50;99.90;;;;;;5036710;28;19932;-44
2023/08/01 01:39:03;;;;;;;;;;;16.50;99.90;;;;;;5033615;28;19929;-43
2023/08/01 01:41:30;;;;;;;;;;;16.50;99.90;;;;;;5017559;28;20425;-44
2023/08/01 01:43:56;;;;;;;;;;;16.50;99.90;;;;;;5032908;28;19958;-43
2023/08/01 01:46:23;;;;;;;;;;;16.50;99.90;;;;;;5035609;28;19961;-43
2023/08/01 01:48:50;;;;;;;;;;;16.50;99.90;;;;;;5024245;28;19931;-42
2023/08/01 01:51:16;;;;;;;;;;;16.50;99.90;;;;;;5046866;28;20364;-43
2023/08/01 01:53:43;;;;;;;;;;;16.40;99.90;;;;;;5047045;28;19953;-43
2023/08/01 01:56:11;;;;;;;;;;;16.50;99.90;;;;;;5048626;28;19931;-43
2023/08/01 01:58:38;;;;;;;;;;;16.50;99.90;;;;;;5018874;28;20025;-43
2023/08/01 02:01:04;;;;;;;;;;;16.40;99.90;;;;;;5042117;28;19966;-44
2023/08/01 02:03:31;;;;;;;;;;;16.50;99.90;;;;;;5045957;28;19947;-44
2023/08/01 02:05:58;;;;;;;;;;;16.40;99.90;;;;;;5032310;28;19925;-43
2023/08/01 02:08:24;;;;;;;;;;;16.40;99.90;;;;;;5017717;28;19920;-43
2023/08/01 02:10:51;;;;;;;;;;;16.40;99.90;;;;;;5045548;28;19932;-43
2023/08/01 02:13:19;;;;;;;;;;;16.40;99.90;;;;;;5028903;28;19951;-43
2023/08/01 02:15:46;;;;;;;;;;;16.40;99.90;;;;;;5038674;28;20289;-43
2023/08/01 02:18:12;;;;;;;;;;;16.30;99.90;;;;;;5033558;28;19929;-44
2023/08/01 02:20:39;;;;;;;;;;;16.30;99.90;;;;;;5019884;28;19916;-43
2023/08/01 02:23:06;;;;;;;;;;;16.30;99.90;;;;;;5017432;28;19952;-43
2023/08/01 02:25:32;;;;;;;;;;;16.30;99.90;;;;;;5037529;28;19948;-43
2023/08/01 02:27:59;;;;;;;;;;;16.20;99.90;;;;;;5037028;28;20023;-43
2023/08/01 02:30:29;;;;;;;;;;;16.20;99.90;;;;;;5033377;28;20393;-43
2023/08/01 02:32:55;;;;;;;;;;;16.10;99.90;;;;;;5016485;28;19940;-44
2023/08/01 02:35:22;;;;;;;;;;;16.10;99.90;;;;;;5036052;28;19950;-44
2023/08/01 02:37:49;;;;;;;;;;;16.10;99.90;;;;;;5031589;28;19953;-43
2023/08/01 02:40:15;;;;;;;;;;;16.10;99.90;;;;;;5037122;28;20001;-43
2023/08/01 02:42:42;;;;;;;;;;;16.00;99.90;;;;;;5015050;28;19951;-44
2023/08/01 02:45:09;;;;;;;;;;;16.00;99.90;;;;;;5033700;28;19931;-44
2023/08/01 02:47:37;;;;;;;;;;;16.00;99.90;;;;;;5043733;28;19923;-43
2023/08/01 02:50:04;;;;;;;;;;;16.00;99.90;;;;;;5027147;28;19916;-43
2023/08/01 02:52:31;;;;;;;;;;;16.00;99.90;;;;;;5014573;28;19933;-43
2023/08/01 02:54:57;;;;;;;;;;;16.00;99.90;;;;;;5032190;28;20378;-44
2023/08/01 02:57:24;;;;;;;;;;;16.00;99.90;;;;;;5033885;28;19941;-44
2023/08/01 02:59:51;;;;;;;;;;;16.00;99.90;;;;;;5033147;28;19958;-43
2023/08/01 03:02:18;;;;;;;;;;;16.00;99.90;;;;;;5012951;28;19953;-43
2023/08/01 03:04:46;;;;;;;;;;;16.00;99.90;;;;;;5033267;28;19971;-44
2023/08/01 03:07:13;;;;;;;;;;;16.00;99.90;;;;;;5033960;28;20297;-44
2023/08/01 03:09:42;;;;;;;;;;;16.00;99.90;;;;;;5015160;28;19938;-43
2023/08/01 03:12:09;;;;;;;;;;;16.00;99.90;;;;;;5033549;28;20015;-42
2023/08/01 03:14:36;;;;;;;;;;;16.00;99.90;;;;;;5032903;28;19917;-43
2023/08/01 03:17:03;;;;;;;;;;;16.00;99.90;;;;;;5037097;28;20373;-43
2023/08/01 03:19:29;;;;;;;;;;;16.00;99.90;;;;;;5046047;28;19932;-43
2023/08/01 03:21:57;;;;;;;;;;;16.00;99.90;;;;;;5045761;28;19960;-42
2023/08/01 03:24:24;;;;;;;;;;;16.00;99.90;;;;;;5031979;28;19924;-43
2023/08/01 03:26:51;;;;;;;;;;;16.00;99.90;;;;;;5019137;28;19916;-44
2023/08/01 03:29:17;;;;;;;;;;;16.00;99.90;;;;;;5035464;28;19939;-43
2023/08/01 03:31:44;;;;;;;;;;;15.90;99.90;;;;;;5014066;28;19931;-44
2023/08/01 03:34:12;;;;;;;;;;;15.90;99.90;;;;;;5032330;28;19947;-44
2023/08/01 03:36:39;;;;;;;;;;;15.80;99.90;;;;;;5034120;28;19917;-43
2023/08/01 03:39:09;;;;;;;;;;;15.80;99.90;;;;;;5022498;28;19917;-44
2023/08/01 03:41:36;;;;;;;;;;;15.80;99.90;;;;;;5035457;28;19936;-44
2023/08/01 03:44:03;;;;;;;;;;;15.80;99.90;;;;;;5031168;28;19956;-43
2023/08/01 03:46:29;;;;;;;;;;;15.70;99.90;;;;;;5030494;28;19917;-42
2023/08/01 03:48:56;;;;;;;;;;;15.70;99.90;;;;;;5039924;28;20375;-43
2023/08/01 03:51:23;;;;;;;;;;;15.70;99.90;;;;;;5014167;28;20296;-43
2023/08/01 03:53:50;;;;;;;;;;;15.60;99.90;;;;;;5031917;28;20424;-43
2023/08/01 03:56:18;;;;;;;;;;;15.60;99.90;;;;;;5025130;28;19997;-44
2023/08/01 03:58:44;;;;;;;;;;;15.60;99.90;;;;;;5031843;28;19989;-43
2023/08/01 04:01:11;;;;;;;;;;;15.60;99.90;;;;;;5029094;28;19917;-44
2023/08/01 04:03:38;;;;;;;;;;;15.60;99.90;;;;;;5031583;28;20358;-44
2023/08/01 04:06:04;;;;;;;;;;;15.60;99.90;;;;;;5031683;28;19940;-44
2023/08/01 04:08:31;;;;;;;;;;;15.70;99.90;;;;;;5041344;28;19934;-43
2023/08/01 04:10:58;;;;;;;;;;;15.60;99.90;;;;;;5031701;28;19924;-43
2023/08/01 04:13:26;;;;;;;;;;;15.60;99.90;;;;;;5031496;28;19958;-43
2023/08/01 04:15:52;;;;;;;;;;;15.60;99.90;;;;;;5021459;28;19917;-43
2023/08/01 04:18:19;;;;;;;;;;;15.60;99.90;;;;;;5034977;28;20395;-43
2023/08/01 04:20:46;;;;;;;;;;;15.60;99.90;;;;;;5037096;28;19931;-43
2023/08/01 04:23:13;;;;;;;;;;;15.50;99.90;;;;;;5052303;28;19955;-43
2023/08/01 04:25:41;;;;;;;;;;;15.50;99.90;;;;;;5032366;28;20380;-43
2023/08/01 04:28:08;;;;;;;;;;;15.50;99.90;;;;;;5036321;28;19938;-43
2023/08/01 04:30:38;;;;;;;;;;;15.50;99.90;;;;;;5036185;28;19921;-42
2023/08/01 04:33:04;;;;;;;;;;;15.50;99.90;;;;;;5017362;28;20348;-43
2023/08/01 04:35:31;;;;;;;;;;;15.50;99.90;;;;;;5036064;28;19938;-44
2023/08/01 04:37:58;;;;;;;;;;;15.50;99.90;;;;;;5041611;28;19916;-44
2023/08/01 04:40:25;;;;;;;;;;;15.40;99.90;;;;;;5050120;28;19951;-43
2023/08/01 04:42:51;;;;;;;;;;;15.40;99.90;;;;;;5035885;28;20272;-44
2023/08/01 04:45:18;;;;;;;;;;;15.40;99.90;;;;;;5018499;28;19967;-43
2023/08/01 04:47:46;;;;;;;;;;;15.40;99.90;;;;;;5018169;28;19917;-43
2023/08/01 04:50:13;;;;;;;;;;;15.30;99.90;;;;;;5018493;28;19917;-43
2023/08/01 04:52:39;;;;;;;;;;;15.30;99.90;;;;;;5046490;28;20362;-44
2023/08/01 04:55:07;;;;;;;;;;;15.30;99.90;;;;;;5048357;28;19936;-42
2023/08/01 04:57:33;;;;;;;;;;;15.30;99.90;;;;;;5044769;28;19997;-43
2023/08/01 05:00:00;;;;;;;;;;;15.30;99.90;;;;;;5018551;28;20353;-44
2023/08/01 05:02:27;;;;;;;;;;;15.30;99.90;;;;;;5046487;28;20270;-44
2023/08/01 05:04:55;;;;;;;;;;;15.30;99.90;;;;;;5045748;28;20001;-44
2023/08/01 05:07:21;;;;;;;;;;;15.30;99.90;;;;;;5043031;28;19989;-44
2023/08/01 05:09:48;;;;;;;;;;;15.40;99.90;;;;;;5022388;28;19952;-44
2023/08/01 05:12:15;;;;;;;;;;;15.40;99.90;;;;;;5038029;28;20336;-44
2023/08/01 05:14:41;;;;;;;;;;;15.40;99.90;;;;;;5017364;28;19937;-43
2023/08/01 05:17:08;;;;;;;;;;;15.50;99.90;;;;;;5036428;28;19927;-43
2023/08/01 05:19:35;;;;;;;;;;;15.50;99.90;;;;;;5043222;28;19929;-43
2023/08/01 05:22:03;;;;;;;;;;;15.50;99.90;;;;;;5037994;28;20273;-43
2023/08/01 05:24:30;;;;;;;;;;;15.60;99.90;;;;;;5034938;28;20008;-43
2023/08/01 05:26:56;;;;;;;;;;;15.60;99.90;;;;;;5048308;28;20270;-43
2023/08/01 05:29:23;;;;;;;;;;;15.60;99.90;;;;;;5038918;28;19920;-44
2023/08/01 05:31:50;;;;;;;;;;;15.70;99.90;;;;;;5025840;28;19938;-43
2023/08/01 05:34:16;;;;;;;;;;;15.70;99.90;;;;;;5037245;28;20033;-44
2023/08/01 05:36:43;;;;;;;;;;;15.70;99.90;;;;;;5020547;28;19986;-43
2023/08/01 05:39:11;;;;;;;;;;;15.70;99.90;;;;;;5041757;28;19952;-44
2023/08/01 05:41:38;;;;;;;;;;;15.70;99.90;;;;;;5036734;28;19917;-43
2023/08/01 05:44:04;;;;;;;;;;;15.70;99.90;;;;;;5042990;28;19947;-44
2023/08/01 05:46:31;;;;;;;;;;;15.70;99.90;;;;;;5045160;28;19921;-44
2023/08/01 05:48:58;;;;;;;;;;;15.70;99.90;;;;;;5039341;28;19925;-44
2023/08/01 05:51:24;;;;;;;;;;;15.70;99.90;;;;;;5019046;28;19947;-44
2023/08/01 05:53:51;;;;;;;;;;;15.70;99.90;;;;;;5022993;28;19930;-43
2023/08/01 05:56:19;;;;;;;;;;;15.80;99.90;;;;;;5029411;28;19955;-44
2023/08/01 05:58:46;;;;;;;;;;;15.80;99.90;;;;;;5025581;28;20473;-44
2023/08/01 06:01:13;;;;;;;;;;;15.80;99.90;;;;;;5038256;28;20319;-43
2023/08/01 06:03:39;;;;;;;;;;;15.90;99.90;;;;;;5035931;28;21222;-43
2023/08/01 06:06:06;;;;;;;;;;;15.90;99.90;;;;;;5039119;28;19935;-43
2023/08/01 06:08:33;;;;;;;;;;;15.90;99.90;;;;;;5034241;28;20296;-43
2023/08/01 06:10:59;;;;;;;;;;;16.00;99.90;;;;;;5020473;28;20440;-43
2023/08/01 06:13:27;;;;;;;;;;;16.00;99.90;;;;;;5022853;28;20245;-44
2023/08/01 06:15:54;;;;;;;;;;;16.10;99.90;;;;;;5030826;28;20367;-42
2023/08/01 06:18:21;;;;;;;;;;;16.10;99.90;;;;;;5019820;28;19990;-43
2023/08/01 06:20:47;;;;;;;;;;;16.10;99.90;;;;;;5036251;28;19943;-43
2023/08/01 06:23:14;;;;;;;;;;;16.10;99.90;;;;;;5017189;28;19952;-44
2023/08/01 06:25:41;;;;;;;;;;;16.20;99.90;;;;;;5016580;28;19956;-43
2023/08/01 06:28:07;;;;;;;;;;;16.20;99.90;;;;;;5023550;28;19944;-44
2023/08/01 06:30:35;;;;;;;;;;;16.20;99.90;;;;;;5043543;28;20298;-43
2023/08/01 06:33:02;;;;;;;;;;;16.20;99.90;;;;;;5040807;28;19945;-44
2023/08/01 06:35:29;;;;;;;;;;;16.20;99.90;;;;;;5015645;28;19971;-43
2023/08/01 06:37:56;;;;;;;;;;;16.20;99.90;;;;;;5016723;28;20303;-43
2023/08/01 06:40:22;;;;;;;;;;;16.30;99.90;;;;;;5017062;28;19951;-44
2023/08/01 06:42:49;;;;;;;;;;;16.30;99.90;;;;;;5036223;28;20339;-43
2023/08/01 06:45:16;;;;;;;;;;;16.30;99.90;;;;;;5033130;28;19947;-43
2023/08/01 06:47:44;;;;;;;;;;;16.40;99.90;;;;;;5040218;28;19943;-44
2023/08/01 06:50:11;;;;;;;;;;;16.40;99.90;;;;;;5036332;28;19921;-43
2023/08/01 06:52:37;;;;;;;;;;;16.40;99.90;;;;;;5029624;28;20002;-43
2023/08/01 06:55:04;;;;;;;;;;;16.40;99.90;;;;;;5041436;28;19961;-43
2023/08/01 06:57:31;;;;;;;;;;;16.40;99.90;;;;;;5035313;28;19928;-43
2023/08/01 06:59:58;;;;;;;;;;;16.50;99.90;;;;;;5036500;28;19939;-43
2023/08/01 07:02:25;;;;;;;;;;;16.50;99.90;;;;;;5033226;28;20288;-44
2023/08/01 07:04:53;;;;;;;;;;;16.60;99.90;;;;;;5034841;28;19924;-43
2023/08/01 07:07:20;;;;;;;;;;;16.70;99.90;;;;;;5022072;28;19924;-43
2023/08/01 07:09:46;;;;;;;;;;;16.80;99.90;;;;;;5031220;28;19954;-44
2023/08/01 07:12:13;;;;;;;;;;;16.90;99.90;;;;;;5038500;28;19954;-42
2023/08/01 07:14:40;;;;;;;;;;;17.00;99.90;;;;;;5046378;28;20342;-44
2023/08/01 07:17:06;;;;;;;;;;;17.00;99.90;;;;;;5043977;28;19933;-44
2023/08/01 07:19:33;;;;;;;;;;;17.10;99.90;;;;;;5016814;28;19929;-43
2023/08/01 07:22:01;;;;;;;;;;;17.20;99.90;;;;;;5031933;28;19929;-44
2023/08/01 07:24:28;;;;;;;;;;;17.20;99.90;;;;;;5035511;28;19947;-43
2023/08/01 07:26:54;;;;;;;;;;;17.20;99.90;;;;;;5030414;28;20019;-44
2023/08/01 07:29:21;;;;;;;;;;;17.30;99.90;;;;;;5015088;28;20357;-43
2023/08/01 07:31:48;;;;;;;;;;;17.30;99.90;;;;;;5018484;28;20418;-43
2023/08/01 07:34:14;;;;;;;;;;;17.30;99.90;;;;;;5019512;28;19935;-44
2023/08/01 07:36:41;;;;;;;;;;;17.20;99.90;;;;;;5035458;28;20364;-44
2023/08/01 07:39:09;;;;;;;;;;;17.20;99.90;;;;;;5039228;28;19925;-43
2023/08/01 07:41:36;;;;;;;;;;;17.20;99.90;;;;;;5031288;28;20465;-43
2023/08/01 07:44:03;;;;;;;;;;;17.20;99.90;;;;;;5029521;28;20427;-43
2023/08/01 07:46:30;;;;;;;;;;;17.20;99.90;;;;;;5014921;28;20364;-44
2023/08/01 07:48:57;;;;;;;;;;;17.20;99.90;;;;;;5031319;28;19953;-43
2023/08/01 07:51:23;;;;;;;;;;;17.20;99.90;;;;;;5031188;28;20233;-44
2023/08/01 07:53:51;;;;;;;;;;;17.10;99.90;;;;;;5031113;28;20371;-44
2023/08/01 07:56:19;;;;;;;;;;;17.10;99.90;;;;;;5030853;28;20379;-43
2023/08/01 07:58:46;;;;;;;;;;;17.10;99.90;;;;;;5006793;28;19924;-44
2023/08/01 08:01:12;;;;;;;;;;;17.00;99.90;;;;;;5034224;28;19947;-44
2023/08/01 08:03:39;;;;;;;;;;;17.00;99.90;;;;;;5031015;28;20304;-44
2023/08/01 08:06:06;;;;;;;;;;;17.00;99.90;;;;;;5022108;28;20438;-43
2023/08/01 08:08:33;;;;;;;;;;;16.90;99.90;;;;;;5031382;28;19939;-43
2023/08/01 08:11:00;;;;;;;;;;;16.90;99.90;;;;;;5016876;28;20036;-43
2023/08/01 08:13:29;;;;;;;;;;;16.90;99.90;;;;;;5014982;28;20304;-43
2023/08/01 08:15:56;;;;;;;;;;;16.90;99.90;;;;;;5032310;28;20379;-44
2023/08/01 08:18:23;;;;;;;;;;;16.90;99.90;;;;;;5039034;28;20026;-43
2023/08/01 08:20:49;;;;;;;;;;;16.90;99.90;;;;;;5020210;28;19989;-42
2023/08/01 08:23:16;;;;;;;;;;;16.80;99.90;;;;;;5018767;28;19942;-42
2023/08/01 08:25:44;;;;;;;;;;;16.80;99.90;;;;;;5034741;28;19917;-43
2023/08/01 08:28:12;;;;;;;;;;;16.70;99.90;;;;;;5029286;28;19948;-43
2023/08/01 08:30:40;;;;;;;;;;;16.70;99.90;;;;;;5046800;28;19978;-43
2023/08/01 08:33:06;;;;;;;;;;;16.70;99.90;;;;;;5022369;28;20360;-43
2023/08/01 08:35:33;;;;;;;;;;;16.60;99.90;;;;;;5043895;28;19949;-42
2023/08/01 08:38:00;;;;;;;;;;;16.60;99.90;;;;;;5031822;28;19990;-44
2023/08/01 08:40:27;;;;;;;;;;;16.60;99.90;;;;;;5016229;28;19951;-43
2023/08/01 08:42:53;;;;;;;;;;;16.60;99.90;;;;;;5041846;28;20398;-43
2023/08/01 08:45:20;;;;;;;;;;;16.50;99.90;;;;;;5049449;28;20008;-43
2023/08/01 08:47:49;;;;;;;;;;;16.50;99.90;;;;;;5033995;28;19964;-44
2023/08/01 08:50:16;;;;;;;;;;;16.50;99.90;;;;;;5040069;28;20199;-43
2023/08/01 08:52:43;;;;;;;;;;;16.50;99.90;;;;;;5013875;28;19921;-43
2023/08/01 08:55:09;;;;;;;;;;;16.50;99.90;;;;;;5031730;28;19964;-44
2023/08/01 08:57:36;;;;;;;;;;;16.50;99.90;;;;;;5028128;28;19921;-43
2023/08/01 09:00:04;;;;;;;;;;;16.50;99.90;;;;;;5030239;28;19954;-44
2023/08/01 09:02:31;;;;;;;;;;;16.50;99.90;;;;;;5012141;28;19921;-43
2023/08/01 09:04:59;;;;;;;;;;;16.50;99.90;;;;;;5016293;28;19925;-43
2023/08/01 09:07:27;;;;;;;;;;;16.50;99.90;;;;;;5026458;28;19951;-42
2023/08/01 09:09:53;;;;;;;;;;;16.50;99.90;;;;;;5031471;28;20250;-43
2023/08/01 09:12:20;;;;;;;;;;;16.60;99.90;;;;;;5014621;28;20028;-44
2023/08/01 09:14:46;;;;;;;;;;;16.60;99.90;;;;;;5012480;28;19940;-43
2023/08/01 09:17:16;;;;;;;;;;;16.60;99.90;;;;;;5037794;28;20391;-43
2023/08/01 09:19:42;;;;;;;;;;;16.60;99.90;;;;;;5017273;28;19938;-42
2023/08/01 09:22:14;;;;;;;;;;;16.60;99.90;;;;;;5031581;28;19935;-44
2023/08/01 09:24:50;;;;;;;;;;;16.60;99.90;;;;;;5015884;28;19921;-43
2023/08/01 09:27:17;;;;;;;;;;;16.50;99.90;;;;;;5036003;28;19924;-43
2023/08/01 09:29:44;;;;;;;;;;;16.50;99.90;;;;;;5040916;28;19971;-43
2023/08/01 09:32:14;;;;;;;;;;;16.40;99.90;;;;;;5049681;28;20283;-44
2023/08/01 09:34:41;;;;;;;;;;;16.40;99.90;;;;;;5036436;28;19982;-42
2023/08/01 09:37:08;;;;;;;;;;;16.40;99.90;;;;;;5033897;28;19929;-43
2023/08/01 09:39:36;;;;;;;;;;;16.50;99.90;;;;;;5024641;28;20273;-44
2023/08/01 09:42:03;;;;;;;;;;;16.50;99.90;;;;;;5028757;28;19923;-43
2023/08/01 09:44:30;;;;;;;;;;;16.70;99.90;;;;;;5033788;28;19923;-43
2023/08/01 09:46:57;;;;;;;;;;;17.00;99.90;;;;;;5031555;28;19938;-44
2023/08/01 09:49:24;;;;;;;;;;;17.30;99.90;;;;;;5030477;28;19962;-43
2023/08/01 09:51:50;;;;;;;;;;;17.40;99.90;;;;;;5015339;28;20466;-44
2023/08/01 09:54:17;;;;;;;;;;;17.50;99.90;;;;;;5034050;28;19929;-44
2023/08/01 09:56:46;;;;;;;;;;;17.60;99.90;;;;;;5017845;28;19916;-44
2023/08/01 09:59:12;;;;;;;;;;;17.70;99.90;;;;;;5035730;28;19925;-43
2023/08/01 10:01:39;;;;;;;;;;;17.80;99.90;;;;;;5048420;28;19997;-43
2023/08/01 10:04:06;;;;;;;;;;;17.80;99.90;;;;;;5031718;28;19924;-42
2023/08/01 10:06:33;;;;;;;;;;;17.80;99.90;;;;;;5013083;28;20327;-41
2023/08/01 10:09:00;;;;;;;;;;;17.90;99.90;;;;;;5038216;28;19947;-44
2023/08/01 10:11:26;;;;;;;;;;;17.80;99.90;;;;;;5026924;28;19924;-43
2023/08/01 10:13:54;;;;;;;;;;;17.80;99.90;;;;;;5025615;28;20009;-43
2023/08/01 10:16:21;;;;;;;;;;;17.70;99.90;;;;;;5029221;28;19951;-43
2023/08/01 10:18:47;;;;;;;;;;;17.70;99.90;;;;;;5018296;28;19936;-43
2023/08/01 10:21:14;;;;;;;;;;;17.60;99.90;;;;;;5016444;28;19928;-43
2023/08/01 10:23:41;;;;;;;;;;;17.60;99.90;;;;;;5011083;28;19951;-43
2023/08/01 10:26:08;;;;;;;;;;;17.50;99.90;;;;;;5024011;28;19921;-44
2023/08/01 10:28:35;;;;;;;;;;;17.40;99.90;;;;;;5032951;28;20335;-44
2023/08/01 10:31:12;;;;;;;;;;;17.30;99.90;;;;;;5016371;28;19955;-43
2023/08/01 10:33:39;;;;;;;;;;;17.30;99.90;;;;;;5040374;28;20343;-43
2023/08/01 10:36:18;;;;;;;;;;;17.20;99.90;;;;;;5034828;28;19950;-43
2023/08/01 10:38:48;;;;;;;;;;;17.20;99.90;;;;;;5013591;28;19931;-43
2023/08/01 10:41:22;;;;;;;;;;;17.20;99.90;;;;;;5011981;28;20420;-43
2023/08/01 10:43:48;;;;;;;;;;;17.20;99.90;;;;;;5033255;28;19995;-43
2023/08/01 10:46:16;;;;;;;;;;;17.20;99.90;;;;;;5013769;28;20001;-44
2023/08/01 10:48:50;;;;;;;;;;;17.30;99.90;;;;;;5042629;28;20001;-43
2023/08/01 10:51:16;;;;;;;;;;;17.30;99.90;;;;;;5032329;28;20312;-43
2023/08/01 10:53:43;;;;;;;;;;;17.30;99.90;;;;;;5032677;28;19978;-43
2023/08/01 10:56:16;;;;;;;;;;;17.30;99.90;;;;;;5030211;28;19925;-43
2023/08/01 10:58:42;;;;;;;;;;;17.30;99.90;;;;;;5026194;28;19933;-42
2023/08/01 11:01:09;;;;;;;;;;;17.40;99.90;;;;;;5009789;28;19985;-44
2023/08/01 11:03:38;;;;;;;;;;;17.50;99.90;;;;;;5014933;28;20365;-44
2023/08/01 11:06:04;;;;;;;;;;;17.70;99.90;;;;;;5023034;28;20361;-43
2023/08/01 11:08:37;;;;;;;;;;;18.10;99.90;;;;;;5029414;28;19932;-42
2023/08/01 11:11:04;;;;;;;;;;;18.30;99.90;;;;;;5013803;28;19953;-44
2023/08/01 11:13:34;;;;;;;;;;;18.60;99.90;;;;;;5025175;28;19954;-43
2023/08/01 11:16:01;;;;;;;;;;;18.70;99.90;;;;;;5028943;28;19996;-43
2023/08/01 11:18:28;;;;;;;;;;;18.80;99.90;;;;;;5013556;28;19978;-43
2023/08/01 11:20:56;;;;;;;;;;;18.70;99.90;;;;;;5002139;28;19924;-43
2023/08/01 11:23:28;;;;;;;;;;;18.70;99.90;;;;;;5015921;28;19940;-44
2023/08/01 11:25:54;;;;;;;;;;;18.50;99.90;;;;;;5034374;28;19959;-43
2023/08/01 11:28:22;;;;;;;;;;;18.40;99.90;;;;;;5016178;28;19929;-43
2023/08/01 11:30:49;;;;;;;;;;;18.50;99.90;;;;;;5040753;28;19928;-43
2023/08/01 11:33:16;;;;;;;;;;;18.50;99.90;;;;;;5030998;28;19917;-43
2023/08/01 11:35:43;;;;;;;;;;;18.50;99.90;;;;;;5030699;28;20289;-43
2023/08/01 11:38:11;;;;;;;;;;;18.40;99.90;;;;;;5012558;28;19920;-43
2023/08/01 11:40:38;;;;;;;;;;;18.30;99.90;;;;;;5025791;28;19951;-43
2023/08/01 11:43:04;;;;;;;;;;;18.30;99.90;;;;;;5031658;28;19955;-44
2023/08/01 11:45:31;;;;;;;;;;;18.40;99.90;;;;;;5024314;28;19948;-43
2023/08/01 11:47:58;;;;;;;;;;;18.60;99.90;;;;;;5044373;28;19933;-43
2023/08/01 11:50:26;;;;;;;;;;;18.80;99.90;;;;;;5013595;28;19931;-43
2023/08/01 11:52:53;;;;;;;;;;;18.90;99.90;;;;;;5025310;28;19977;-44
2023/08/01 11:55:25;;;;;;;;;;;18.80;99.90;;;;;;5030237;28;19929;-43
2023/08/01 11:57:53;;;;;;;;;;;18.60;99.90;;;;;;5030158;28;19971;-43
2023/08/01 12:00:22;;;;;;;;;;;18.30;99.90;;;;;;5012771;28;19924;-44
2023/08/01 12:02:49;;;;;;;;;;;18.20;99.90;;;;;;5029527;28;20005;-43
2023/08/01 12:05:21;;;;;;;;;;;18.10;99.90;;;;;;5011100;28;19979;-43
2023/08/01 12:07:48;;;;;;;;;;;18.10;99.90;;;;;;5013384;28;19939;-43
2023/08/01 12:10:15;;;;;;;;;;;18.20;99.90;;;;;;5014854;28;19932;-43
2023/08/01 12:12:45;;;;;;;;;;;18.10;99.90;;;;;;5030410;28;19952;-44
2023/08/01 12:15:12;;;;;;;;;;;18.20;99.90;;;;;;5013613;28;20250;-44
2023/08/01 12:17:39;;;;;;;;;;;18.20;99.90;;;;;;5030624;28;20300;-44
2023/08/01 12:20:06;;;;;;;;;;;18.30;99.90;;;;;;5011544;28;19932;-43
2023/08/01 12:22:33;;;;;;;;;;;18.50;99.90;;;;;;5025478;28;19925;-43
2023/08/01 12:25:00;;;;;;;;;;;18.70;99.90;;;;;;5034225;28;19980;-44
2023/08/01 12:27:26;;;;;;;;;;;18.90;99.90;;;;;;5024572;28;19917;-43
2023/08/01 12:29:54;;;;;;;;;;;19.00;99.90;;;;;;5037022;28;19924;-43
2023/08/01 12:32:21;;;;;;;;;;;19.00;99.90;;;;;;5028436;28;20354;-43
2023/08/01 12:34:48;;;;;;;;;;;18.80;99.90;;;;;;5039009;28;20400;-43
2023/08/01 12:37:14;;;;;;;;;;;18.60;99.90;;;;;;5043947;28;20360;-43
2023/08/01 12:39:41;;;;;;;;;;;18.60;99.90;;;;;;5008991;28;19937;-43
2023/08/01 12:42:08;;;;;;;;;;;18.40;99.90;;;;;;4985720;28;19938;-43
2023/08/01 12:44:35;;;;;;;;;;;18.40;99.90;;;;;;5009012;28;19982;-43
2023/08/01 12:47:03;;;;;;;;;;;18.30;99.90;;;;;;5010790;28;19923;-44
2023/08/01 12:49:30;;;;;;;;;;;18.40;99.90;;;;;;4988524;28;19949;-43
2023/08/01 12:51:57;;;;;;;;;;;18.60;99.90;;;;;;5009462;28;20561;-43
2023/08/01 12:54:24;;;;;;;;;;;18.80;99.90;;;;;;5014065;28;19951;-43
2023/08/01 12:56:50;;;;;;;;;;;18.90;99.90;;;;;;4995241;28;19921;-44
2023/08/01 12:59:17;;;;;;;;;;;19.10;99.90;;;;;;4994155;28;19954;-43
2023/08/01 13:01:44;;;;;;;;;;;19.30;99.90;;;;;;4996702;28;19967;-43
2023/08/01 13:04:12;;;;;;;;;;;19.40;99.90;;;;;;5011325;28;19952;-43
2023/08/01 13:06:38;;;;;;;;;;;19.50;99.90;;;;;;4993759;28;19922;-43
2023/08/01 13:09:05;;;;;;;;;;;19.40;99.90;;;;;;5013606;28;20412;-44
2023/08/01 13:11:32;;;;;;;;;;;19.40;99.90;;;;;;4995401;28;19917;-44
2023/08/01 13:13:59;;;;;;;;;;;19.40;99.90;;;;;;5012945;28;20359;-44
2023/08/01 13:16:25;;;;;;;;;;;19.40;99.90;;;;;;4991676;28;19968;-44
2023/08/01 13:18:52;;;;;;;;;;;19.40;99.90;;;;;;4988593;28;20353;-43
2023/08/01 13:21:20;;;;;;;;;;;19.50;99.90;;;;;;4996716;28;19921;-44
2023/08/01 13:23:47;;;;;;;;;;;19.60;99.90;;;;;;5014025;28;20431;-44
2023/08/01 13:26:13;;;;;;;;;;;19.80;99.90;;;;;;5012422;28;19994;-44
2023/08/01 13:28:40;;;;;;;;;;;19.90;99.90;;;;;;5012943;28;19944;-44
2023/08/01 13:31:07;;;;;;;;;;;19.90;99.90;;;;;;4997408;28;19970;-43
2023/08/01 13:33:33;;;;;;;;;;;20.00;99.90;;;;;;4989735;28;20011;-44
2023/08/01 13:36:00;;;;;;;;;;;19.90;99.90;;;;;;5012028;28;19946;-44
2023/08/01 13:38:28;;;;;;;;;;;19.80;99.90;;;;;;5014730;28;20354;-44
2023/08/01 13:40:55;;;;;;;;;;;19.70;99.90;;;;;;5014645;28;19963;-44
2023/08/01 13:43:24;;;;;;;;;;;19.70;99.90;;;;;;5012282;28;19931;-44
2023/08/01 13:45:52;;;;;;;;;;;19.70;99.90;;;;;;4995797;28;19948;-44
2023/08/01 13:48:19;;;;;;;;;;;19.70;99.90;;;;;;5020982;28;19935;-43
2023/08/01 13:50:46;;;;;;;;;;;19.60;99.90;;;;;;5016731;28;19962;-44
2023/08/01 13:53:13;;;;;;;;;;;19.70;99.90;;;;;;5015219;28;20020;-43
2023/08/01 13:55:41;;;;;;;;;;;19.70;99.90;;;;;;5000684;28;19985;-44
2023/08/01 13:58:08;;;;;;;;;;;19.80;99.90;;;;;;4997109;28;19933;-43
2023/08/01 14:00:35;;;;;;;;;;;19.80;99.90;;;;;;5009555;28;19934;-44
2023/08/01 14:03:02;;;;;;;;;;;19.90;99.90;;;;;;5015581;28;19940;-42
2023/08/01 14:05:29;;;;;;;;;;;19.90;99.90;;;;;;4994501;28;19942;-42
2023/08/01 14:07:56;;;;;;;;;;;19.90;99.90;;;;;;4996981;28;19932;-43
2023/08/01 14:10:23;;;;;;;;;;;19.90;99.90;;;;;;5013167;28;19986;-44
2023/08/01 14:12:51;;;;;;;;;;;19.90;99.90;;;;;;5014358;28;19939;-44
2023/08/01 14:15:18;;;;;;;;;;;19.90;99.90;;;;;;5012617;28;20702;-44